createdAt,value
2022-10-30T00:00:44.357Z,398.00
2022-10-30T00:01:38.853Z,402.00
2022-10-30T00:02:37.076Z,405.00
2022-10-30T00:03:47.394Z,406.00
2022-10-30T00:04:44.083Z,422.00
2022-10-30T00:05:40.835Z,412.00
2022-10-30T00:06:39.129Z,407.00
2022-10-30T00:07:46.249Z,397.00
2022-10-30T00:08:38.314Z,395.00
2022-10-30T00:09:37.818Z,399.00
2022-10-30T00:10:42.741Z,407.00
2022-10-30T00:11:36.963Z,397.00
2022-10-30T00:12:37.999Z,400.00
2022-10-30T00:13:49.913Z,399.00
2022-10-30T00:14:42.024Z,412.00
2022-10-30T00:15:40.658Z,411.00
2022-10-30T00:16:44.415Z,407.00
2022-10-30T00:17:39.868Z,421.00
2022-10-30T00:18:35.615Z,408.00
2022-10-30T00:19:36.492Z,435.00
2022-10-30T00:20:38.702Z,429.00
2022-10-30T02:23:09.375Z,435.00
2022-10-30T02:23:14.957Z,387.00
2022-10-30T02:24:14.968Z,383.00
2022-10-30T02:25:14.996Z,391.00
2022-10-30T02:26:14.855Z,395.00
2022-10-30T02:27:14.905Z,408.00
2022-10-30T02:28:14.889Z,416.00
2022-10-30T02:29:14.896Z,403.00
2022-10-30T02:30:14.800Z,418.00
2022-10-30T02:31:14.850Z,431.00
2022-10-30T02:32:14.786Z,427.00
2022-10-30T02:33:14.884Z,421.00
2022-10-30T02:34:14.917Z,425.00
2022-10-30T02:35:14.843Z,423.00
2022-10-30T02:36:14.795Z,426.00
2022-10-30T02:37:14.684Z,440.00
2022-10-30T02:38:14.758Z,440.00
2022-10-30T02:39:14.760Z,438.00
2022-10-30T02:40:14.761Z,443.00
2022-10-30T02:41:14.720Z,449.00
2022-10-30T02:42:14.746Z,432.00
2022-10-30T02:43:14.683Z,439.00
2022-10-30T02:44:14.602Z,433.00
2022-10-30T02:45:14.643Z,442.00
2022-10-30T02:46:14.662Z,437.00
2022-10-30T02:47:14.755Z,439.00
2022-10-30T02:48:14.630Z,429.00
2022-10-30T02:49:14.558Z,428.00
2022-10-30T02:50:14.595Z,429.00
2022-10-30T02:51:14.509Z,442.00
2022-10-30T02:52:14.561Z,420.00
2022-10-30T02:53:14.590Z,418.00
2022-10-30T02:54:14.521Z,416.00
2022-10-30T02:55:14.536Z,401.00
2022-10-30T02:56:14.531Z,384.00
2022-10-30T02:57:14.484Z,394.00
2022-10-30T02:58:14.457Z,373.00
2022-10-30T02:59:14.509Z,400.00
2022-10-30T03:00:14.458Z,412.00
2022-10-30T03:01:14.481Z,418.00
2022-10-30T03:02:14.563Z,428.00
2022-10-30T03:03:15.796Z,433.00
2022-10-30T03:04:14.442Z,441.00
2022-10-30T03:05:14.468Z,452.00
2022-10-30T03:06:14.343Z,444.00
2022-10-30T03:07:14.356Z,448.00
2022-10-30T03:08:14.267Z,448.00
2022-10-30T03:09:14.239Z,445.00
2022-10-30T03:10:14.236Z,444.00
2022-10-30T03:11:14.222Z,440.00
2022-10-30T03:12:14.224Z,443.00
2022-10-30T03:13:14.182Z,441.00
2022-10-30T03:14:14.168Z,432.00
2022-10-30T03:15:14.156Z,414.00
2022-10-30T03:16:14.161Z,416.00
2022-10-30T03:17:14.154Z,402.00
2022-10-30T03:18:14.138Z,395.00
2022-10-30T03:19:14.093Z,388.00
2022-10-30T03:20:14.084Z,380.00
2022-10-30T03:21:14.086Z,378.00
2022-10-30T03:22:14.080Z,375.00
2022-10-30T03:23:14.041Z,375.00
2022-10-30T03:24:14.032Z,376.00
2022-10-30T03:25:14.012Z,369.00
2022-10-30T03:26:14.000Z,376.00
2022-10-30T03:27:14.014Z,380.00
2022-10-30T03:28:14.013Z,383.00
2022-10-30T03:29:13.961Z,385.00
2022-10-30T03:30:13.949Z,381.00
2022-10-30T03:31:13.940Z,383.00
2022-10-30T03:32:14.088Z,383.00
2022-10-30T03:33:13.906Z,383.00
2022-10-30T03:34:13.927Z,382.00
2022-10-30T03:35:13.877Z,388.00
2022-10-30T03:36:13.866Z,396.00
2022-10-30T03:37:13.867Z,397.00
2022-10-30T03:38:13.873Z,390.00
2022-10-30T03:39:13.839Z,388.00
2022-10-30T03:40:13.816Z,375.00
2022-10-30T03:41:13.795Z,372.00
2022-10-30T03:42:13.814Z,377.00
2022-10-30T03:43:13.781Z,363.00
2022-10-30T03:44:13.760Z,370.00
2022-10-30T03:45:13.751Z,374.00
2022-10-30T03:46:13.753Z,375.00
2022-10-30T03:47:13.804Z,372.00
2022-10-30T03:48:13.735Z,369.00
2022-10-30T03:49:13.689Z,371.00
2022-10-30T03:50:13.687Z,362.00
2022-10-30T03:51:13.668Z,361.00
2022-10-30T03:52:13.685Z,361.00
2022-10-30T03:53:13.647Z,363.00
2022-10-30T03:54:13.642Z,368.00
2022-10-30T03:55:13.642Z,377.00
2022-10-30T03:56:13.618Z,371.00
2022-10-30T03:57:13.599Z,384.00
2022-10-30T03:58:13.594Z,380.00
2022-10-30T03:59:13.570Z,356.00
2022-10-30T04:00:13.577Z,370.00
2022-10-30T04:01:13.670Z,393.00
2022-10-30T04:02:13.693Z,368.00
2022-10-30T04:03:13.524Z,393.00
2022-10-30T04:04:13.555Z,372.00
2022-10-30T04:05:13.503Z,363.00
2022-10-30T04:06:13.507Z,355.00
2022-10-30T04:07:13.452Z,388.00
2022-10-30T04:08:13.464Z,371.00
2022-10-30T04:09:13.451Z,361.00
2022-10-30T04:10:14.941Z,364.00
2022-10-30T04:11:13.459Z,358.00
2022-10-30T04:12:13.424Z,339.00
2022-10-30T04:13:13.418Z,404.00
2022-10-30T04:14:13.373Z,356.00
2022-10-30T04:15:13.368Z,386.00
2022-10-30T04:16:13.409Z,367.00
2022-10-30T04:17:13.371Z,386.00
2022-10-30T04:18:13.332Z,376.00
2022-10-30T04:19:13.292Z,377.00
2022-10-30T04:20:13.281Z,377.00
2022-10-30T04:21:13.268Z,413.00
2022-10-30T04:22:13.288Z,389.00
2022-10-30T04:23:13.272Z,384.00
2022-10-30T04:24:13.254Z,385.00
2022-10-30T04:25:19.256Z,382.00
2022-10-30T04:26:13.217Z,372.00
2022-10-30T04:27:13.196Z,361.00
2022-10-30T04:28:13.195Z,367.00
2022-10-30T04:29:13.170Z,370.00
2022-10-30T04:30:13.170Z,381.00
2022-10-30T04:31:13.150Z,364.00
2022-10-30T04:32:13.128Z,362.00
2022-10-30T04:33:13.114Z,357.00
2022-10-30T04:34:13.108Z,361.00
2022-10-30T04:35:13.085Z,382.00
2022-10-30T04:36:13.084Z,355.00
2022-10-30T04:37:13.064Z,355.00
2022-10-30T04:38:13.065Z,379.00
2022-10-30T04:39:13.026Z,345.00
2022-10-30T04:40:13.036Z,364.00
2022-10-30T04:41:13.018Z,349.00
2022-10-30T04:42:12.986Z,373.00
2022-10-30T04:43:12.987Z,377.00
2022-10-30T04:44:13.003Z,359.00
2022-10-30T04:45:15.265Z,366.00
2022-10-30T04:46:12.952Z,387.00
2022-10-30T04:47:12.951Z,367.00
2022-10-30T04:48:12.954Z,367.00
2022-10-30T04:49:12.920Z,346.00
2022-10-30T04:50:12.879Z,340.00
2022-10-30T04:51:12.883Z,356.00
2022-10-30T04:52:12.870Z,375.00
2022-10-30T04:53:12.855Z,378.00
2022-10-30T04:54:12.860Z,359.00
2022-10-30T04:55:12.809Z,360.00
2022-10-30T04:56:12.818Z,341.00
2022-10-30T04:57:12.785Z,352.00
2022-10-30T04:58:12.778Z,386.00
2022-10-30T04:59:12.781Z,380.00
2022-10-30T05:00:12.755Z,378.00
2022-10-30T05:01:12.928Z,363.00
2022-10-30T05:02:12.913Z,368.00
2022-10-30T05:03:12.727Z,360.00
2022-10-30T05:04:12.705Z,342.00
2022-10-30T05:05:12.690Z,369.00
2022-10-30T05:06:12.670Z,354.00
2022-10-30T05:07:12.690Z,361.00
2022-10-30T05:08:12.640Z,346.00
2022-10-30T05:09:12.625Z,335.00
2022-10-30T05:10:12.624Z,362.00
2022-10-30T05:11:12.612Z,368.00
2022-10-30T05:12:12.599Z,343.00
2022-10-30T05:13:12.596Z,346.00
2022-10-30T05:14:12.572Z,336.00
2022-10-30T05:15:12.570Z,380.00
2022-10-30T05:16:12.536Z,372.00
2022-10-30T05:17:12.561Z,378.00
2022-10-30T05:18:12.513Z,372.00
2022-10-30T05:19:12.541Z,365.00
2022-10-30T05:20:14.888Z,361.00
2022-10-30T05:21:12.496Z,363.00
2022-10-30T05:22:12.450Z,355.00
2022-10-30T05:23:12.468Z,360.00
2022-10-30T05:24:12.438Z,359.00
2022-10-30T05:25:12.446Z,348.00
2022-10-30T05:26:12.518Z,347.00
2022-10-30T05:27:12.413Z,358.00
2022-10-30T05:28:12.480Z,351.00
2022-10-30T05:29:12.383Z,361.00
2022-10-30T05:30:12.358Z,343.00
2022-10-30T05:31:12.338Z,355.00
2022-10-30T05:33:12.331Z,356.00
2022-10-30T05:34:12.292Z,352.00
2022-10-30T05:35:12.329Z,347.00
2022-10-30T05:36:12.279Z,360.00
2022-10-30T05:37:12.256Z,309.00
2022-10-30T05:38:12.260Z,342.00
2022-10-30T05:39:12.232Z,359.00
2022-10-30T05:40:12.228Z,353.00
2022-10-30T05:41:12.225Z,360.00
2022-10-30T05:42:13.894Z,335.00
2022-10-30T05:43:12.198Z,381.00
2022-10-30T05:44:12.175Z,373.00
2022-10-30T05:45:12.163Z,344.00
2022-10-30T05:46:12.155Z,355.00
2022-10-30T05:47:12.137Z,377.00
2022-10-30T05:48:12.166Z,355.00
2022-10-30T05:49:12.208Z,377.00
2022-10-30T05:50:12.085Z,382.00
2022-10-30T05:51:12.113Z,342.00
2022-10-30T05:52:12.186Z,374.00
2022-10-30T05:53:12.087Z,355.00
2022-10-30T05:54:12.161Z,366.00
2022-10-30T05:55:12.078Z,395.00
2022-10-30T05:56:12.009Z,399.00
2022-10-30T05:57:12.009Z,390.00
2022-10-30T05:58:12.055Z,348.00
2022-10-30T05:59:11.990Z,375.00
2022-10-30T06:00:12.065Z,406.00
2022-10-30T06:01:12.025Z,358.00
2022-10-30T06:02:12.014Z,381.00
2022-10-30T06:03:11.958Z,391.00
2022-10-30T06:04:11.996Z,381.00
2022-10-30T06:05:11.989Z,362.00
2022-10-30T06:06:11.973Z,364.00
2022-10-30T06:07:11.867Z,377.00
2022-10-30T06:08:12.726Z,402.00
2022-10-30T06:09:11.963Z,346.00
2022-10-30T06:10:11.885Z,367.00
2022-10-30T06:11:12.069Z,375.00
2022-10-30T06:12:11.888Z,388.00
2022-10-30T06:13:11.908Z,386.00
2022-10-30T06:14:11.772Z,373.00
2022-10-30T06:15:11.751Z,364.00
2022-10-30T06:16:11.832Z,389.00
2022-10-30T06:17:11.765Z,347.00
2022-10-30T06:18:11.725Z,394.00
2022-10-30T06:19:17.251Z,384.00
2022-10-30T06:20:11.727Z,377.00
2022-10-30T06:21:11.738Z,356.00
2022-10-30T06:22:11.692Z,356.00
2022-10-30T06:23:11.655Z,383.00
2022-10-30T06:24:11.689Z,368.00
2022-10-30T06:25:11.639Z,375.00
2022-10-30T06:26:11.599Z,363.00
2022-10-30T06:27:11.629Z,296.00
2022-10-30T06:28:11.599Z,384.00
2022-10-30T06:29:11.584Z,381.00
2022-10-30T06:30:11.612Z,372.00
2022-10-30T06:31:11.644Z,366.00
2022-10-30T06:32:11.564Z,369.00
2022-10-30T06:33:11.535Z,376.00
2022-10-30T06:34:11.516Z,374.00
2022-10-30T06:35:11.544Z,371.00
2022-10-30T06:36:11.516Z,351.00
2022-10-30T06:37:11.515Z,359.00
2022-10-30T06:38:11.467Z,357.00
2022-10-30T06:39:11.456Z,357.00
2022-10-30T06:40:11.425Z,361.00
2022-10-30T06:41:11.457Z,356.00
2022-10-30T06:42:11.392Z,353.00
2022-10-30T06:43:11.404Z,351.00
2022-10-30T06:44:11.395Z,350.00
2022-10-30T06:45:11.400Z,352.00
2022-10-30T06:46:11.358Z,356.00
2022-10-30T06:47:11.321Z,353.00
2022-10-30T06:48:11.330Z,354.00
2022-10-30T06:49:11.314Z,351.00
2022-10-30T06:50:11.346Z,350.00
2022-10-30T06:51:11.295Z,349.00
2022-10-30T06:52:11.267Z,343.00
2022-10-30T06:53:11.251Z,336.00
2022-10-30T06:54:11.280Z,328.00
2022-10-30T06:55:11.241Z,323.00
2022-10-30T06:56:11.199Z,321.00
2022-10-30T06:57:11.192Z,317.00
2022-10-30T06:58:11.190Z,312.00
2022-10-30T06:59:11.169Z,308.00
2022-10-30T07:00:11.173Z,307.00
2022-10-30T07:01:11.144Z,305.00
2022-10-30T07:02:11.503Z,305.00
2022-10-30T07:03:11.119Z,301.00
2022-10-30T07:04:11.110Z,301.00
2022-10-30T07:05:11.126Z,301.00
2022-10-30T07:06:11.064Z,299.00
2022-10-30T07:07:11.064Z,299.00
2022-10-30T07:08:11.057Z,298.00
2022-10-30T07:09:11.035Z,298.00
2022-10-30T07:10:11.013Z,294.00
2022-10-30T07:11:11.015Z,297.00
2022-10-30T07:12:11.015Z,297.00
2022-10-30T07:13:10.981Z,293.00
2022-10-30T07:14:11.371Z,294.00
2022-10-30T07:15:10.955Z,295.00
2022-10-30T07:16:11.035Z,292.00
2022-10-30T07:17:10.954Z,294.00
2022-10-30T07:18:10.911Z,297.00
2022-10-30T07:19:10.925Z,299.00
2022-10-30T07:20:10.932Z,299.00
2022-10-30T07:21:10.898Z,304.00
2022-10-30T07:22:10.872Z,304.00
2022-10-30T07:23:10.864Z,310.00
2022-10-30T07:24:10.833Z,314.00
2022-10-30T07:25:10.860Z,315.00
2022-10-30T07:26:10.824Z,310.00
2022-10-30T07:27:10.818Z,314.00
2022-10-30T07:28:10.827Z,314.00
2022-10-30T07:29:10.773Z,317.00
2022-10-30T07:30:10.820Z,322.00
2022-10-30T07:31:10.763Z,338.00
2022-10-30T07:32:10.730Z,339.00
2022-10-30T07:33:10.723Z,324.00
2022-10-30T07:34:10.731Z,332.00
2022-10-30T07:35:10.718Z,333.00
2022-10-30T07:36:10.712Z,340.00
2022-10-30T07:37:10.679Z,344.00
2022-10-30T07:38:10.716Z,346.00
2022-10-30T07:39:10.647Z,350.00
2022-10-30T07:40:12.888Z,332.00
2022-10-30T07:41:10.618Z,350.00
2022-10-30T07:42:10.626Z,355.00
2022-10-30T07:43:10.601Z,355.00
2022-10-30T07:44:10.575Z,351.00
2022-10-30T07:46:10.567Z,355.00
2022-10-30T07:47:10.554Z,347.00
2022-10-30T07:48:10.541Z,356.00
2022-10-30T07:49:10.547Z,364.00
2022-10-30T07:50:10.514Z,358.00
2022-10-30T07:51:10.526Z,356.00
2022-10-30T07:52:16.171Z,361.00
2022-10-30T07:53:10.539Z,360.00
2022-10-30T07:54:10.473Z,356.00
2022-10-30T07:55:10.437Z,361.00
2022-10-30T07:56:10.432Z,358.00
2022-10-30T07:57:10.460Z,374.00
2022-10-30T07:58:10.399Z,374.00
2022-10-30T07:59:10.401Z,368.00
2022-10-30T08:00:10.397Z,389.00
2022-10-30T08:01:10.382Z,383.00
2022-10-30T08:02:10.557Z,375.00
2022-10-30T08:03:10.363Z,377.00
2022-10-30T08:04:10.324Z,375.00
2022-10-30T08:05:10.306Z,374.00
2022-10-30T08:06:10.312Z,375.00
2022-10-30T08:07:10.283Z,376.00
2022-10-30T08:08:10.287Z,377.00
2022-10-30T08:09:10.270Z,381.00
2022-10-30T08:10:10.230Z,382.00
2022-10-30T08:11:10.235Z,386.00
2022-10-30T08:12:10.218Z,386.00
2022-10-30T08:13:10.268Z,386.00
2022-10-30T08:14:10.203Z,383.00
2022-10-30T08:15:10.172Z,381.00
2022-10-30T08:16:10.169Z,381.00
2022-10-30T08:17:10.146Z,382.00
2022-10-30T08:18:10.197Z,382.00
2022-10-30T08:19:10.138Z,381.00
2022-10-30T08:20:10.110Z,382.00
2022-10-30T08:21:10.118Z,381.00
2022-10-30T08:22:10.092Z,378.00
2022-10-30T08:23:10.092Z,377.00
2022-10-30T08:24:10.069Z,379.00
2022-10-30T08:25:10.100Z,380.00
2022-10-30T08:26:10.023Z,380.00
2022-10-30T08:27:10.045Z,381.00
2022-10-30T08:28:10.038Z,381.00
2022-10-30T08:29:10.021Z,378.00
2022-10-30T08:30:09.999Z,378.00
2022-10-30T08:31:09.982Z,382.00
2022-10-30T08:32:09.945Z,385.00
2022-10-30T08:33:09.950Z,385.00
2022-10-30T08:34:09.947Z,387.00
2022-10-30T08:35:09.923Z,387.00
2022-10-30T08:36:09.903Z,385.00
2022-10-30T08:37:09.901Z,387.00
2022-10-30T08:38:09.879Z,389.00
2022-10-30T08:39:09.873Z,386.00
2022-10-30T08:40:09.852Z,390.00
2022-10-30T08:41:09.843Z,390.00
2022-10-30T08:42:09.853Z,391.00
2022-10-30T08:43:09.824Z,392.00
2022-10-30T08:44:09.784Z,393.00
2022-10-30T08:45:09.794Z,395.00
2022-10-30T08:46:09.841Z,395.00
2022-10-30T08:47:09.820Z,396.00
2022-10-30T08:48:09.736Z,397.00
2022-10-30T08:49:09.766Z,399.00
2022-10-30T08:50:09.740Z,401.00
2022-10-30T08:51:09.717Z,399.00
2022-10-30T08:52:09.712Z,398.00
2022-10-30T08:53:09.676Z,402.00
2022-10-30T08:54:09.653Z,402.00
2022-10-30T08:55:09.641Z,400.00
2022-10-30T08:56:09.627Z,403.00
2022-10-30T08:57:09.638Z,404.00
2022-10-30T08:58:09.673Z,401.00
2022-10-30T08:59:09.689Z,401.00
2022-10-30T09:00:09.586Z,402.00
2022-10-30T09:01:09.669Z,402.00
2022-10-30T09:02:09.660Z,403.00
2022-10-30T09:03:10.030Z,403.00
2022-10-30T09:04:09.536Z,402.00
2022-10-30T09:05:09.593Z,402.00
2022-10-30T09:06:09.507Z,401.00
2022-10-30T09:07:12.092Z,401.00
2022-10-30T09:08:09.504Z,398.00
2022-10-30T09:09:09.486Z,396.00
2022-10-30T09:10:09.491Z,396.00
2022-10-30T09:11:09.452Z,396.00
2022-10-30T09:12:09.432Z,396.00
2022-10-30T09:13:09.422Z,395.00
2022-10-30T09:14:09.406Z,395.00
2022-10-30T09:15:09.381Z,396.00
2022-10-30T09:16:09.399Z,395.00
2022-10-30T09:17:09.355Z,394.00
2022-10-30T09:18:09.358Z,395.00
2022-10-30T09:19:09.342Z,394.00
2022-10-30T09:20:09.314Z,395.00
2022-10-30T09:21:09.305Z,400.00
2022-10-30T09:22:09.288Z,403.00
2022-10-30T09:23:09.302Z,405.00
2022-10-30T09:24:09.272Z,406.00
2022-10-30T09:25:09.867Z,406.00
2022-10-30T09:26:09.629Z,406.00
2022-10-30T09:27:09.721Z,405.00
2022-10-30T09:28:09.436Z,403.00
2022-10-30T09:29:09.856Z,406.00
2022-10-30T09:30:09.655Z,407.00
2022-10-30T09:31:09.414Z,408.00
2022-10-30T09:32:09.290Z,410.00
2022-10-30T09:33:09.582Z,412.00
2022-10-30T09:34:09.632Z,411.00
2022-10-30T09:35:09.785Z,410.00
2022-10-30T09:36:09.130Z,410.00
2022-10-30T09:37:09.217Z,411.00
2022-10-30T09:38:09.183Z,412.00
2022-10-30T09:39:09.076Z,415.00
2022-10-30T09:40:09.050Z,414.00
2022-10-30T09:41:09.440Z,414.00
2022-10-30T09:42:09.148Z,416.00
2022-10-30T09:43:09.274Z,415.00
2022-10-30T09:44:09.310Z,413.00
2022-10-30T09:45:27.883Z,414.00
2022-10-30T09:46:09.122Z,413.00
2022-10-30T09:47:09.050Z,411.00
2022-10-30T09:48:08.946Z,411.00
2022-10-30T09:50:09.682Z,414.00
2022-10-30T09:51:09.279Z,415.00
2022-10-30T09:52:08.900Z,415.00
2022-10-30T09:53:08.900Z,415.00
2022-10-30T09:54:08.897Z,419.00
2022-10-30T09:55:08.889Z,419.00
2022-10-30T09:56:08.942Z,421.00
2022-10-30T09:57:09.402Z,418.00
2022-10-30T09:58:08.967Z,416.00
2022-10-30T09:59:08.870Z,417.00
2022-10-30T10:00:09.269Z,414.00
2022-10-30T10:01:08.851Z,415.00
2022-10-30T10:02:08.957Z,414.00
2022-10-30T10:03:08.806Z,416.00
2022-10-30T10:04:08.846Z,417.00
2022-10-30T10:05:09.488Z,417.00
2022-10-30T10:06:09.147Z,415.00
2022-10-30T10:07:08.877Z,414.00
2022-10-30T10:08:09.485Z,412.00
2022-10-30T10:09:08.792Z,411.00
2022-10-30T10:10:08.864Z,412.00
2022-10-30T10:11:09.010Z,414.00
2022-10-30T10:12:08.874Z,415.00
2022-10-30T10:13:09.645Z,409.00
2022-10-30T10:14:08.737Z,405.00
2022-10-30T10:15:08.635Z,407.00
2022-10-30T10:16:08.722Z,408.00
2022-10-30T10:17:08.598Z,410.00
2022-10-30T10:18:08.586Z,408.00
2022-10-30T10:19:08.554Z,407.00
2022-10-30T10:20:08.552Z,407.00
2022-10-30T10:21:09.281Z,403.00
2022-10-30T10:22:08.517Z,404.00
2022-10-30T10:23:08.514Z,407.00
2022-10-30T10:24:09.041Z,406.00
2022-10-30T10:25:12.520Z,407.00
2022-10-30T10:26:09.003Z,410.00
2022-10-30T10:27:08.451Z,413.00
2022-10-30T10:28:08.516Z,414.00
2022-10-30T10:29:08.800Z,412.00
2022-10-30T10:30:08.906Z,413.00
2022-10-30T10:31:08.875Z,414.00
2022-10-30T10:32:09.233Z,414.00
2022-10-30T10:33:08.902Z,414.00
2022-10-30T10:34:08.415Z,413.00
2022-10-30T10:35:08.479Z,413.00
2022-10-30T10:36:08.497Z,414.00
2022-10-30T10:37:08.333Z,413.00
2022-10-30T10:38:08.457Z,411.00
2022-10-30T10:39:08.301Z,407.00
2022-10-30T10:40:08.437Z,406.00
2022-10-30T10:41:09.067Z,404.00
2022-10-30T10:42:08.392Z,403.00
2022-10-30T10:43:08.259Z,400.00
2022-10-30T10:44:08.222Z,399.00
2022-10-30T10:45:08.354Z,399.00
2022-10-30T10:46:08.238Z,401.00
2022-10-30T10:47:08.237Z,401.00
2022-10-30T10:48:08.442Z,403.00
2022-10-30T10:49:08.533Z,402.00
2022-10-30T10:50:10.010Z,403.00
2022-10-30T10:51:08.273Z,405.00
2022-10-30T10:52:08.175Z,406.00
2022-10-30T10:53:08.123Z,405.00
2022-10-30T10:54:08.110Z,403.00
2022-10-30T10:55:08.071Z,400.00
2022-10-30T10:56:08.452Z,400.00
2022-10-30T10:57:08.837Z,397.00
2022-10-30T10:58:08.056Z,394.00
2022-10-30T10:59:08.037Z,393.00
2022-10-30T11:00:08.028Z,391.00
2022-10-30T11:01:08.450Z,389.00
2022-10-30T11:02:08.208Z,388.00
2022-10-30T11:03:08.659Z,388.00
2022-10-30T11:04:09.028Z,387.00
2022-10-30T11:05:07.995Z,387.00
2022-10-30T11:06:08.487Z,386.00
2022-10-30T11:07:08.487Z,385.00
2022-10-30T11:08:07.917Z,385.00
2022-10-30T11:09:08.422Z,384.00
2022-10-30T11:10:07.899Z,383.00
2022-10-30T11:11:08.148Z,382.00
2022-10-30T11:12:08.534Z,382.00
2022-10-30T11:13:07.844Z,382.00
2022-10-30T11:14:07.839Z,384.00
2022-10-30T11:15:07.825Z,384.00
2022-10-30T11:16:07.848Z,384.00
2022-10-30T11:17:07.805Z,383.00
2022-10-30T11:18:07.842Z,385.00
2022-10-30T11:19:07.798Z,386.00
2022-10-30T11:20:07.787Z,389.00
2022-10-30T11:21:07.753Z,389.00
2022-10-30T11:22:07.762Z,390.00
2022-10-30T11:23:07.742Z,391.00
2022-10-30T11:24:07.754Z,390.00
2022-10-30T11:25:07.693Z,387.00
2022-10-30T11:26:07.697Z,387.00
2022-10-30T11:27:07.675Z,385.00
2022-10-30T11:28:07.680Z,384.00
2022-10-30T11:29:07.683Z,384.00
2022-10-30T11:30:07.641Z,384.00
2022-10-30T11:31:07.723Z,384.00
2022-10-30T11:32:07.763Z,386.00
2022-10-30T11:33:07.607Z,385.00
2022-10-30T11:34:07.624Z,386.00
2022-10-30T11:35:07.581Z,385.00
2022-10-30T11:36:11.501Z,386.00
2022-10-30T11:37:07.550Z,387.00
2022-10-30T11:38:07.627Z,389.00
2022-10-30T11:39:07.542Z,390.00
2022-10-30T11:40:08.301Z,389.00
2022-10-30T11:41:08.677Z,392.00
2022-10-30T11:42:07.507Z,394.00
2022-10-30T11:43:07.474Z,394.00
2022-10-30T11:44:08.238Z,397.00
2022-10-30T11:45:07.440Z,396.00
2022-10-30T11:46:07.584Z,395.00
2022-10-30T11:47:07.630Z,397.00
2022-10-30T11:48:13.417Z,397.00
2022-10-30T11:49:08.030Z,395.00
2022-10-30T11:50:07.904Z,400.00
2022-10-30T11:51:07.482Z,402.00
2022-10-30T11:52:07.608Z,398.00
2022-10-30T11:53:08.384Z,398.00
2022-10-30T11:54:07.473Z,397.00
2022-10-30T11:55:07.313Z,397.00
2022-10-30T11:56:07.584Z,397.00
2022-10-30T11:57:07.709Z,397.00
2022-10-30T11:58:07.720Z,396.00
2022-10-30T11:59:07.320Z,395.00
2022-10-30T12:00:07.273Z,395.00
2022-10-30T12:01:07.255Z,395.00
2022-10-30T12:02:07.535Z,395.00
2022-10-30T12:03:07.350Z,395.00
2022-10-30T12:04:07.345Z,395.00
2022-10-30T12:05:07.209Z,396.00
2022-10-30T12:06:07.325Z,395.00
2022-10-30T12:07:07.206Z,393.00
2022-10-30T12:08:07.139Z,393.00
2022-10-30T12:09:07.217Z,391.00
2022-10-30T12:10:07.120Z,391.00
2022-10-30T12:11:07.114Z,392.00
2022-10-30T12:12:07.107Z,394.00
2022-10-30T12:13:07.111Z,396.00
2022-10-30T12:14:07.078Z,396.00
2022-10-30T12:15:07.068Z,397.00
2022-10-30T12:16:07.036Z,396.00
2022-10-30T12:17:07.018Z,397.00
2022-10-30T12:18:07.024Z,397.00
2022-10-30T12:19:07.012Z,397.00
2022-10-30T12:20:07.001Z,396.00
2022-10-30T12:21:06.979Z,394.00
2022-10-30T12:22:09.787Z,393.00
2022-10-30T12:23:06.953Z,389.00
2022-10-30T12:24:07.003Z,387.00
2022-10-30T12:25:06.968Z,387.00
2022-10-30T12:26:06.924Z,387.00
2022-10-30T12:27:06.904Z,385.00
2022-10-30T12:28:06.894Z,382.00
2022-10-30T12:29:06.860Z,381.00
2022-10-30T12:30:09.303Z,379.00
2022-10-30T12:31:06.852Z,377.00
2022-10-30T12:32:06.838Z,376.00
2022-10-30T12:33:06.820Z,376.00
2022-10-30T12:34:06.849Z,376.00
2022-10-30T12:35:06.798Z,376.00
2022-10-30T12:36:06.807Z,373.00
2022-10-30T12:37:06.777Z,374.00
2022-10-30T12:38:06.754Z,372.00
2022-10-30T12:39:06.863Z,370.00
2022-10-30T12:40:06.723Z,370.00
2022-10-30T12:41:06.710Z,369.00
2022-10-30T12:42:06.711Z,369.00
2022-10-30T12:43:06.690Z,368.00
2022-10-30T12:44:06.701Z,369.00
2022-10-30T12:45:06.673Z,367.00
2022-10-30T12:46:06.674Z,368.00
2022-10-30T12:47:06.674Z,365.00
2022-10-30T12:48:06.634Z,365.00
2022-10-30T12:49:06.607Z,365.00
2022-10-30T12:50:06.633Z,365.00
2022-10-30T12:51:06.587Z,363.00
2022-10-30T12:52:06.570Z,361.00
2022-10-30T12:53:06.556Z,361.00
2022-10-30T12:54:06.551Z,362.00
2022-10-30T12:55:06.529Z,361.00
2022-10-30T12:56:06.529Z,362.00
2022-10-30T12:57:06.524Z,365.00
2022-10-30T12:58:06.533Z,364.00
2022-10-30T12:59:06.488Z,364.00
2022-10-30T13:00:06.492Z,362.00
2022-10-30T13:01:06.467Z,361.00
2022-10-30T13:02:06.553Z,362.00
2022-10-30T13:03:06.434Z,367.00
2022-10-30T13:04:06.435Z,368.00
2022-10-30T13:05:06.408Z,367.00
2022-10-30T13:06:06.416Z,363.00
2022-10-30T13:07:06.469Z,359.00
2022-10-30T13:08:06.372Z,357.00
2022-10-30T13:09:06.367Z,357.00
2022-10-30T13:10:06.345Z,358.00
2022-10-30T13:11:06.315Z,357.00
2022-10-30T13:12:06.510Z,360.00
2022-10-30T13:13:06.284Z,364.00
2022-10-30T13:14:06.316Z,365.00
2022-10-30T13:15:06.262Z,366.00
2022-10-30T13:16:06.264Z,367.00
2022-10-30T13:17:06.234Z,365.00
2022-10-30T13:18:06.244Z,364.00
2022-10-30T13:19:06.230Z,366.00
2022-10-30T13:20:06.229Z,367.00
2022-10-30T13:21:06.197Z,366.00
2022-10-30T13:22:06.361Z,365.00
2022-10-30T13:23:06.190Z,366.00
2022-10-30T13:24:06.146Z,366.00
2022-10-30T13:25:06.129Z,366.00
2022-10-30T13:26:06.143Z,363.00
2022-10-30T13:27:06.174Z,361.00
2022-10-30T13:28:06.113Z,362.00
2022-10-30T13:29:06.098Z,360.00
2022-10-30T13:30:06.096Z,358.00
2022-10-30T13:31:06.056Z,358.00
2022-10-30T13:32:06.056Z,357.00
2022-10-30T13:33:06.047Z,357.00
2022-10-30T13:34:06.034Z,356.00
2022-10-30T13:35:06.011Z,354.00
2022-10-30T13:36:05.987Z,353.00
2022-10-30T13:37:06.019Z,354.00
2022-10-30T13:38:05.970Z,351.00
2022-10-30T13:39:05.957Z,350.00
2022-10-30T13:40:05.940Z,350.00
2022-10-30T13:41:05.941Z,350.00
2022-10-30T13:42:05.939Z,348.00
2022-10-30T13:43:05.933Z,348.00
2022-10-30T13:44:05.912Z,348.00
2022-10-30T13:45:05.899Z,349.00
2022-10-30T13:46:05.880Z,349.00
2022-10-30T13:47:05.862Z,349.00
2022-10-30T13:48:05.864Z,348.00
2022-10-30T13:49:05.832Z,346.00
2022-10-30T13:50:05.804Z,346.00
2022-10-30T13:51:05.808Z,347.00
2022-10-30T13:52:05.785Z,344.00
2022-10-30T13:53:05.794Z,342.00
2022-10-30T13:54:05.771Z,340.00
2022-10-30T13:55:05.751Z,339.00
2022-10-30T13:56:05.726Z,338.00
2022-10-30T13:57:05.733Z,340.00
2022-10-30T13:58:05.701Z,339.00
2022-10-30T13:59:05.724Z,338.00
2022-10-30T14:00:05.671Z,338.00
2022-10-30T14:01:05.742Z,336.00
2022-10-30T14:02:05.781Z,335.00
2022-10-30T14:03:05.686Z,336.00
2022-10-30T14:04:05.686Z,337.00
2022-10-30T14:05:05.640Z,338.00
2022-10-30T14:06:05.667Z,337.00
2022-10-30T14:07:05.600Z,337.00
2022-10-30T14:08:06.451Z,337.00
2022-10-30T14:09:05.585Z,338.00
2022-10-30T14:10:05.541Z,337.00
2022-10-30T14:11:05.584Z,336.00
2022-10-30T14:12:05.528Z,336.00
2022-10-30T14:13:05.529Z,335.00
2022-10-30T14:14:05.510Z,334.00
2022-10-30T14:15:05.482Z,335.00
2022-10-30T14:16:05.472Z,336.00
2022-10-30T14:17:05.485Z,336.00
2022-10-30T14:18:05.452Z,336.00
2022-10-30T14:19:05.431Z,333.00
2022-10-30T14:20:10.550Z,330.00
2022-10-30T14:21:05.425Z,329.00
2022-10-30T14:22:05.388Z,328.00
2022-10-30T14:23:05.399Z,328.00
2022-10-30T14:24:05.367Z,328.00
2022-10-30T14:25:05.367Z,329.00
2022-10-30T14:26:05.345Z,328.00
2022-10-30T14:27:05.330Z,327.00
2022-10-30T14:28:05.313Z,324.00
2022-10-30T14:29:05.313Z,324.00
2022-10-30T14:30:05.282Z,324.00
2022-10-30T14:31:05.273Z,323.00
2022-10-30T14:32:05.279Z,323.00